sensor_id;sensor_type;location;lat;lon;timestamp;P1;durP1;ratioP1;P2;durP2;ratioP2
36629;SDS011;36256;42.154;23.002;2024-01-15T00:00:15;31.33;;;14.68;;
36629;SDS011;36256;42.154;23.002;2024-01-15T00:02:43;28.55;;;14.15;;
36629;SDS011;36256;42.154;23.002;2024-01-15T00:05:09;27.63;;;14.38;;
36629;SDS011;36256;42.154;23.002;2024-01-15T00:10:03;29.48;;;13.93;;
36629;SDS011;36256;42.154;23.002;2024-01-15T00:12:30;28.25;;;13.75;;
36629;SDS011;36256;42.154;23.002;2024-01-15T00:14:57;30.75;;;14.38;;
36629;SDS011;36256;42.154;23.002;2024-01-15T00:17:23;32.58;;;14.15;;
36629;SDS011;36256;42.154;23.002;2024-01-15T00:19:51;30.77;;;14.68;;
36629;SDS011;36256;42.154;23.002;2024-01-15T00:22:18;31.65;;;14.57;;
36629;SDS011;36256;42.154;23.002;2024-01-15T00:24:45;38.38;;;17.20;;
36629;SDS011;36256;42.154;23.002;2024-01-15T00:27:12;43.63;;;20.42;;
36629;SDS011;36256;42.154;23.002;2024-01-15T00:29:38;78.47;;;28.67;;
36629;SDS011;36256;42.154;23.002;2024-01-15T00:32:05;116.18;;;36.53;;
36629;SDS011;36256;42.154;23.002;2024-01-15T00:39:25;61.75;;;22.88;;
36629;SDS011;36256;42.154;23.002;2024-01-15T00:41:52;60.17;;;23.73;;
36629;SDS011;36256;42.154;23.002;2024-01-15T00:44:19;66.22;;;24.85;;
36629;SDS011;36256;42.154;23.002;2024-01-15T00:46:46;46.67;;;21.23;;
36629;SDS011;36256;42.154;23.002;2024-01-15T00:49:13;40.15;;;16.65;;
36629;SDS011;36256;42.154;23.002;2024-01-15T00:51:41;31.60;;;15.80;;
36629;SDS011;36256;42.154;23.002;2024-01-15T00:56:34;33.78;;;15.23;;
36629;SDS011;36256;42.154;23.002;2024-01-15T00:59:01;31.95;;;15.20;;
36629;SDS011;36256;42.154;23.002;2024-01-15T01:01:28;43.28;;;19.40;;
36629;SDS011;36256;42.154;23.002;2024-01-15T01:03:55;45.97;;;21.48;;
36629;SDS011;36256;42.154;23.002;2024-01-15T01:06:22;41.30;;;19.70;;
36629;SDS011;36256;42.154;23.002;2024-01-15T01:08:49;44.55;;;22.08;;
36629;SDS011;36256;42.154;23.002;2024-01-15T01:11:15;45.92;;;20.30;;
36629;SDS011;36256;42.154;23.002;2024-01-15T01:13:42;35.55;;;15.93;;
36629;SDS011;36256;42.154;23.002;2024-01-15T01:16:09;31.05;;;14.63;;
36629;SDS011;36256;42.154;23.002;2024-01-15T01:21:03;28.13;;;13.90;;
36629;SDS011;36256;42.154;23.002;2024-01-15T01:25:56;34.78;;;17.00;;
36629;SDS011;36256;42.154;23.002;2024-01-15T01:28:23;34.17;;;16.63;;
36629;SDS011;36256;42.154;23.002;2024-01-15T01:30:50;29.67;;;14.52;;
36629;SDS011;36256;42.154;23.002;2024-01-15T01:33:17;30.92;;;15.45;;
36629;SDS011;36256;42.154;23.002;2024-01-15T01:38:11;33.28;;;15.55;;
36629;SDS011;36256;42.154;23.002;2024-01-15T01:40:39;42.53;;;19.70;;
36629;SDS011;36256;42.154;23.002;2024-01-15T01:43:06;46.13;;;23.08;;
36629;SDS011;36256;42.154;23.002;2024-01-15T01:45:32;76.57;;;35.60;;
36629;SDS011;36256;42.154;23.002;2024-01-15T01:48:00;84.43;;;38.85;;
36629;SDS011;36256;42.154;23.002;2024-01-15T01:50:28;75.78;;;35.25;;
36629;SDS011;36256;42.154;23.002;2024-01-15T01:52:58;56.42;;;28.38;;
36629;SDS011;36256;42.154;23.002;2024-01-15T01:55:26;52.05;;;26.17;;
36629;SDS011;36256;42.154;23.002;2024-01-15T01:57:55;50.95;;;24.30;;
36629;SDS011;36256;42.154;23.002;2024-01-15T02:00:22;51.08;;;24.17;;
36629;SDS011;36256;42.154;23.002;2024-01-15T02:02:50;56.10;;;25.92;;
36629;SDS011;36256;42.154;23.002;2024-01-15T02:05:18;60.47;;;27.52;;
36629;SDS011;36256;42.154;23.002;2024-01-15T02:07:45;55.20;;;25.27;;
36629;SDS011;36256;42.154;23.002;2024-01-15T02:10:13;57.97;;;26.85;;
36629;SDS011;36256;42.154;23.002;2024-01-15T02:12:40;54.47;;;25.40;;
36629;SDS011;36256;42.154;23.002;2024-01-15T02:15:09;54.78;;;27.55;;
36629;SDS011;36256;42.154;23.002;2024-01-15T02:17:55;55.53;;;27.60;;
36629;SDS011;36256;42.154;23.002;2024-01-15T02:20:24;57.42;;;27.42;;
36629;SDS011;36256;42.154;23.002;2024-01-15T02:22:51;55.30;;;25.42;;
36629;SDS011;36256;42.154;23.002;2024-01-15T02:27:45;55.85;;;24.15;;
36629;SDS011;36256;42.154;23.002;2024-01-15T02:30:12;52.40;;;24.23;;
36629;SDS011;36256;42.154;23.002;2024-01-15T02:32:40;54.00;;;24.65;;
36629;SDS011;36256;42.154;23.002;2024-01-15T02:37:34;34.28;;;17.33;;
36629;SDS011;36256;42.154;23.002;2024-01-15T02:40:02;36.63;;;18.20;;
36629;SDS011;36256;42.154;23.002;2024-01-15T02:42:32;44.67;;;20.67;;
36629;SDS011;36256;42.154;23.002;2024-01-15T02:45:00;45.97;;;20.63;;
36629;SDS011;36256;42.154;23.002;2024-01-15T02:47:27;46.58;;;20.83;;
36629;SDS011;36256;42.154;23.002;2024-01-15T02:49:53;47.17;;;21.98;;
36629;SDS011;36256;42.154;23.002;2024-01-15T02:52:22;61.60;;;27.02;;
36629;SDS011;36256;42.154;23.002;2024-01-15T02:54:54;55.78;;;26.70;;
36629;SDS011;36256;42.154;23.002;2024-01-15T02:57:27;61.10;;;27.02;;
36629;SDS011;36256;42.154;23.002;2024-01-15T02:59:54;68.88;;;29.60;;
36629;SDS011;36256;42.154;23.002;2024-01-15T03:02:20;63.80;;;30.65;;
36629;SDS011;36256;42.154;23.002;2024-01-15T03:04:50;64.63;;;29.05;;
36629;SDS011;36256;42.154;23.002;2024-01-15T03:07:17;62.05;;;27.40;;
36629;SDS011;36256;42.154;23.002;2024-01-15T03:09:44;66.53;;;27.58;;
36629;SDS011;36256;42.154;23.002;2024-01-15T03:12:11;59.17;;;27.08;;
36629;SDS011;36256;42.154;23.002;2024-01-15T03:14:38;65.85;;;28.65;;
36629;SDS011;36256;42.154;23.002;2024-01-15T03:17:05;59.80;;;27.77;;
36629;SDS011;36256;42.154;23.002;2024-01-15T03:19:34;53.58;;;26.27;;
36629;SDS011;36256;42.154;23.002;2024-01-15T03:22:01;61.92;;;27.90;;
36629;SDS011;36256;42.154;23.002;2024-01-15T03:24:31;58.65;;;25.98;;
36629;SDS011;36256;42.154;23.002;2024-01-15T03:26:58;56.90;;;26.30;;
36629;SDS011;36256;42.154;23.002;2024-01-15T03:29:25;57.88;;;27.80;;
36629;SDS011;36256;42.154;23.002;2024-01-15T03:31:52;53.58;;;25.15;;
36629;SDS011;36256;42.154;23.002;2024-01-15T03:34:19;55.08;;;24.98;;
36629;SDS011;36256;42.154;23.002;2024-01-15T03:36:47;56.08;;;25.42;;
36629;SDS011;36256;42.154;23.002;2024-01-15T03:39:14;51.83;;;25.40;;
36629;SDS011;36256;42.154;23.002;2024-01-15T03:41:41;56.67;;;23.38;;
36629;SDS011;36256;42.154;23.002;2024-01-15T03:44:07;47.20;;;21.30;;
36629;SDS011;36256;42.154;23.002;2024-01-15T03:46:34;46.30;;;21.13;;
36629;SDS011;36256;42.154;23.002;2024-01-15T03:49:01;46.15;;;21.00;;
36629;SDS011;36256;42.154;23.002;2024-01-15T03:51:28;40.78;;;19.17;;
36629;SDS011;36256;42.154;23.002;2024-01-15T03:53:55;39.70;;;18.52;;
36629;SDS011;36256;42.154;23.002;2024-01-15T03:56:22;44.60;;;19.75;;
36629;SDS011;36256;42.154;23.002;2024-01-15T03:58:48;64.50;;;27.30;;
36629;SDS011;36256;42.154;23.002;2024-01-15T04:01:15;57.28;;;25.63;;
36629;SDS011;36256;42.154;23.002;2024-01-15T04:03:42;49.30;;;21.92;;
36629;SDS011;36256;42.154;23.002;2024-01-15T04:08:35;46.72;;;19.58;;
36629;SDS011;36256;42.154;23.002;2024-01-15T04:11:02;46.55;;;20.15;;
36629;SDS011;36256;42.154;23.002;2024-01-15T04:13:33;94.25;;;36.63;;
36629;SDS011;36256;42.154;23.002;2024-01-15T04:16:00;128.43;;;54.92;;
36629;SDS011;36256;42.154;23.002;2024-01-15T04:18:27;116.53;;;51.15;;
36629;SDS011;36256;42.154;23.002;2024-01-15T04:25:47;73.43;;;32.35;;
36629;SDS011;36256;42.154;23.002;2024-01-15T04:28:14;77.65;;;35.85;;
36629;SDS011;36256;42.154;23.002;2024-01-15T04:30:41;79.78;;;35.88;;
36629;SDS011;36256;42.154;23.002;2024-01-15T04:35:35;124.25;;;51.35;;
36629;SDS011;36256;42.154;23.002;2024-01-15T04:38:01;115.72;;;48.53;;
36629;SDS011;36256;42.154;23.002;2024-01-15T04:40:29;106.38;;;46.08;;
36629;SDS011;36256;42.154;23.002;2024-01-15T04:42:55;90.90;;;39.20;;
36629;SDS011;36256;42.154;23.002;2024-01-15T04:45:22;96.13;;;38.75;;
36629;SDS011;36256;42.154;23.002;2024-01-15T04:47:55;73.30;;;34.58;;
36629;SDS011;36256;42.154;23.002;2024-01-15T04:50:24;83.15;;;36.88;;
36629;SDS011;36256;42.154;23.002;2024-01-15T04:52:51;81.70;;;36.78;;
36629;SDS011;36256;42.154;23.002;2024-01-15T04:55:22;91.70;;;39.45;;
36629;SDS011;36256;42.154;23.002;2024-01-15T04:57:48;125.03;;;47.42;;
36629;SDS011;36256;42.154;23.002;2024-01-15T05:00:15;110.07;;;43.72;;
36629;SDS011;36256;42.154;23.002;2024-01-15T05:02:43;112.28;;;43.05;;
36629;SDS011;36256;42.154;23.002;2024-01-15T05:05:10;122.63;;;47.60;;
36629;SDS011;36256;42.154;23.002;2024-01-15T05:07:37;97.28;;;42.80;;
36629;SDS011;36256;42.154;23.002;2024-01-15T05:10:04;87.07;;;37.47;;
36629;SDS011;36256;42.154;23.002;2024-01-15T05:12:31;86.13;;;38.70;;
36629;SDS011;36256;42.154;23.002;2024-01-15T05:14:58;82.93;;;38.45;;
36629;SDS011;36256;42.154;23.002;2024-01-15T05:17:25;106.45;;;48.50;;
36629;SDS011;36256;42.154;23.002;2024-01-15T05:19:51;74.30;;;33.20;;
36629;SDS011;36256;42.154;23.002;2024-01-15T05:22:18;62.50;;;28.52;;
36629;SDS011;36256;42.154;23.002;2024-01-15T05:24:45;59.65;;;26.48;;
36629;SDS011;36256;42.154;23.002;2024-01-15T05:27:12;60.70;;;26.23;;
36629;SDS011;36256;42.154;23.002;2024-01-15T05:29:38;59.65;;;26.95;;
36629;SDS011;36256;42.154;23.002;2024-01-15T05:32:05;54.53;;;25.88;;
36629;SDS011;36256;42.154;23.002;2024-01-15T05:34:32;53.42;;;24.45;;
36629;SDS011;36256;42.154;23.002;2024-01-15T05:39:26;52.60;;;23.08;;
36629;SDS011;36256;42.154;23.002;2024-01-15T05:41:52;50.13;;;23.50;;
36629;SDS011;36256;42.154;23.002;2024-01-15T05:44:19;48.25;;;22.73;;
36629;SDS011;36256;42.154;23.002;2024-01-15T05:46:46;48.03;;;21.95;;
36629;SDS011;36256;42.154;23.002;2024-01-15T05:49:13;46.67;;;22.20;;
36629;SDS011;36256;42.154;23.002;2024-01-15T05:51:40;115.28;;;43.92;;
36629;SDS011;36256;42.154;23.002;2024-01-15T05:54:07;161.40;;;51.25;;
36629;SDS011;36256;42.154;23.002;2024-01-15T05:56:34;107.28;;;42.10;;
36629;SDS011;36256;42.154;23.002;2024-01-15T06:01:28;119.30;;;47.70;;
36629;SDS011;36256;42.154;23.002;2024-01-15T06:03:55;131.27;;;47.95;;
36629;SDS011;36256;42.154;23.002;2024-01-15T06:06:22;117.70;;;44.03;;
36629;SDS011;36256;42.154;23.002;2024-01-15T06:08:52;132.52;;;49.47;;
36629;SDS011;36256;42.154;23.002;2024-01-15T06:11:18;106.30;;;42.95;;
36629;SDS011;36256;42.154;23.002;2024-01-15T06:13:45;79.20;;;34.35;;
36629;SDS011;36256;42.154;23.002;2024-01-15T06:16:15;69.75;;;32.35;;
36629;SDS011;36256;42.154;23.002;2024-01-15T06:18:46;72.97;;;31.35;;
36629;SDS011;36256;42.154;23.002;2024-01-15T06:23:41;75.30;;;32.83;;
36629;SDS011;36256;42.154;23.002;2024-01-15T06:26:07;77.05;;;33.50;;
36629;SDS011;36256;42.154;23.002;2024-01-15T06:33:27;81.38;;;32.85;;
36629;SDS011;36256;42.154;23.002;2024-01-15T06:35:54;74.78;;;33.13;;
36629;SDS011;36256;42.154;23.002;2024-01-15T06:38:22;66.90;;;30.10;;
36629;SDS011;36256;42.154;23.002;2024-01-15T06:40:49;62.92;;;29.92;;
36629;SDS011;36256;42.154;23.002;2024-01-15T06:43:19;67.18;;;28.80;;
36629;SDS011;36256;42.154;23.002;2024-01-15T06:45:45;64.47;;;29.25;;
36629;SDS011;36256;42.154;23.002;2024-01-15T06:50:43;75.50;;;32.67;;
36629;SDS011;36256;42.154;23.002;2024-01-15T06:53:10;97.03;;;39.80;;
36629;SDS011;36256;42.154;23.002;2024-01-15T06:55:38;83.65;;;38.50;;
36629;SDS011;36256;42.154;23.002;2024-01-15T06:58:08;74.45;;;34.88;;
36629;SDS011;36256;42.154;23.002;2024-01-15T07:00:34;74.88;;;34.50;;
36629;SDS011;36256;42.154;23.002;2024-01-15T07:03:01;80.35;;;38.30;;
36629;SDS011;36256;42.154;23.002;2024-01-15T07:05:29;91.78;;;39.47;;
36629;SDS011;36256;42.154;23.002;2024-01-15T07:07:57;82.53;;;38.80;;
36629;SDS011;36256;42.154;23.002;2024-01-15T07:10:24;72.35;;;34.35;;
36629;SDS011;36256;42.154;23.002;2024-01-15T07:12:51;91.95;;;41.20;;
36629;SDS011;36256;42.154;23.002;2024-01-15T07:15:18;86.57;;;40.28;;
36629;SDS011;36256;42.154;23.002;2024-01-15T07:17:44;88.88;;;41.08;;
36629;SDS011;36256;42.154;23.002;2024-01-15T07:20:11;87.55;;;40.13;;
36629;SDS011;36256;42.154;23.002;2024-01-15T07:22:38;95.68;;;40.30;;
36629;SDS011;36256;42.154;23.002;2024-01-15T07:25:05;56.80;;;25.42;;
36629;SDS011;36256;42.154;23.002;2024-01-15T07:27:33;49.45;;;22.63;;
36629;SDS011;36256;42.154;23.002;2024-01-15T07:32:33;44.78;;;20.67;;
36629;SDS011;36256;42.154;23.002;2024-01-15T07:35:00;41.78;;;19.38;;
36629;SDS011;36256;42.154;23.002;2024-01-15T07:37:27;46.17;;;20.75;;
36629;SDS011;36256;42.154;23.002;2024-01-15T07:39:54;43.33;;;21.05;;
36629;SDS011;36256;42.154;23.002;2024-01-15T07:42:21;52.35;;;24.88;;
36629;SDS011;36256;42.154;23.002;2024-01-15T07:44:48;57.55;;;26.38;;
36629;SDS011;36256;42.154;23.002;2024-01-15T07:47:15;50.00;;;23.52;;
36629;SDS011;36256;42.154;23.002;2024-01-15T07:49:42;46.05;;;20.90;;
36629;SDS011;36256;42.154;23.002;2024-01-15T07:52:09;42.97;;;21.02;;
36629;SDS011;36256;42.154;23.002;2024-01-15T07:54:36;44.88;;;22.80;;
36629;SDS011;36256;42.154;23.002;2024-01-15T07:57:03;60.13;;;26.85;;
36629;SDS011;36256;42.154;23.002;2024-01-15T07:59:30;73.30;;;31.77;;
36629;SDS011;36256;42.154;23.002;2024-01-15T08:01:57;76.95;;;35.33;;
36629;SDS011;36256;42.154;23.002;2024-01-15T08:04:25;74.40;;;36.25;;
36629;SDS011;36256;42.154;23.002;2024-01-15T08:06:52;77.18;;;37.20;;
36629;SDS011;36256;42.154;23.002;2024-01-15T08:11:46;90.30;;;39.30;;
36629;SDS011;36256;42.154;23.002;2024-01-15T08:14:12;56.67;;;25.85;;
36629;SDS011;36256;42.154;23.002;2024-01-15T08:16:39;40.85;;;21.02;;
36629;SDS011;36256;42.154;23.002;2024-01-15T08:19:06;40.83;;;19.60;;
36629;SDS011;36256;42.154;23.002;2024-01-15T08:24:01;38.92;;;19.08;;
36629;SDS011;36256;42.154;23.002;2024-01-15T08:26:29;37.97;;;17.58;;
36629;SDS011;36256;42.154;23.002;2024-01-15T08:28:55;40.15;;;18.25;;
36629;SDS011;36256;42.154;23.002;2024-01-15T08:31:25;42.50;;;20.75;;
36629;SDS011;36256;42.154;23.002;2024-01-15T08:33:52;43.35;;;20.67;;
36629;SDS011;36256;42.154;23.002;2024-01-15T08:36:20;39.78;;;18.95;;
36629;SDS011;36256;42.154;23.002;2024-01-15T08:38:48;37.40;;;18.90;;
36629;SDS011;36256;42.154;23.002;2024-01-15T08:41:14;41.78;;;19.27;;
36629;SDS011;36256;42.154;23.002;2024-01-15T08:43:41;65.10;;;32.60;;
36629;SDS011;36256;42.154;23.002;2024-01-15T08:46:08;86.45;;;40.88;;
36629;SDS011;36256;42.154;23.002;2024-01-15T08:48:35;71.80;;;33.90;;
36629;SDS011;36256;42.154;23.002;2024-01-15T08:51:03;87.82;;;38.55;;
36629;SDS011;36256;42.154;23.002;2024-01-15T08:53:30;68.85;;;34.70;;
36629;SDS011;36256;42.154;23.002;2024-01-15T08:55:57;67.65;;;33.13;;
36629;SDS011;36256;42.154;23.002;2024-01-15T08:58:23;69.93;;;34.53;;
36629;SDS011;36256;42.154;23.002;2024-01-15T09:00:51;69.03;;;33.75;;
36629;SDS011;36256;42.154;23.002;2024-01-15T09:08:11;62.38;;;30.17;;
36629;SDS011;36256;42.154;23.002;2024-01-15T09:13:05;47.13;;;23.13;;
36629;SDS011;36256;42.154;23.002;2024-01-15T09:15:31;42.55;;;21.35;;
36629;SDS011;36256;42.154;23.002;2024-01-15T09:20:26;34.95;;;17.58;;
36629;SDS011;36256;42.154;23.002;2024-01-15T09:22:58;36.00;;;18.10;;
36629;SDS011;36256;42.154;23.002;2024-01-15T09:25:25;39.03;;;19.73;;
36629;SDS011;36256;42.154;23.002;2024-01-15T09:27:52;40.55;;;20.65;;
36629;SDS011;36256;42.154;23.002;2024-01-15T09:30:19;41.97;;;20.45;;
36629;SDS011;36256;42.154;23.002;2024-01-15T09:32:46;40.83;;;20.08;;
36629;SDS011;36256;42.154;23.002;2024-01-15T09:35:13;37.70;;;17.65;;
36629;SDS011;36256;42.154;23.002;2024-01-15T09:37:39;36.80;;;19.08;;
36629;SDS011;36256;42.154;23.002;2024-01-15T09:40:14;44.95;;;22.50;;
36629;SDS011;36256;42.154;23.002;2024-01-15T09:42:42;45.53;;;23.63;;
36629;SDS011;36256;42.154;23.002;2024-01-15T09:45:10;46.25;;;23.77;;
36629;SDS011;36256;42.154;23.002;2024-01-15T09:47:38;48.65;;;25.08;;
36629;SDS011;36256;42.154;23.002;2024-01-15T09:50:10;50.72;;;26.20;;
36629;SDS011;36256;42.154;23.002;2024-01-15T09:52:37;74.15;;;31.92;;
36629;SDS011;36256;42.154;23.002;2024-01-15T09:55:05;81.78;;;38.80;;
36629;SDS011;36256;42.154;23.002;2024-01-15T09:57:32;64.63;;;31.15;;
36629;SDS011;36256;42.154;23.002;2024-01-15T09:59:59;57.58;;;28.45;;
36629;SDS011;36256;42.154;23.002;2024-01-15T10:02:30;74.57;;;38.00;;
36629;SDS011;36256;42.154;23.002;2024-01-15T10:04:57;65.95;;;35.05;;
36629;SDS011;36256;42.154;23.002;2024-01-15T10:07:25;55.53;;;29.63;;
36629;SDS011;36256;42.154;23.002;2024-01-15T10:09:52;49.22;;;25.63;;
36629;SDS011;36256;42.154;23.002;2024-01-15T10:12:21;51.92;;;27.90;;
36629;SDS011;36256;42.154;23.002;2024-01-15T10:14:50;50.55;;;27.38;;
36629;SDS011;36256;42.154;23.002;2024-01-15T10:17:17;66.18;;;30.73;;
36629;SDS011;36256;42.154;23.002;2024-01-15T10:19:47;61.40;;;29.17;;
36629;SDS011;36256;42.154;23.002;2024-01-15T10:22:16;54.30;;;27.77;;
36629;SDS011;36256;42.154;23.002;2024-01-15T10:24:44;52.25;;;25.33;;
36629;SDS011;36256;42.154;23.002;2024-01-15T10:27:14;50.75;;;25.45;;
36629;SDS011;36256;42.154;23.002;2024-01-15T10:29:41;52.63;;;28.58;;
36629;SDS011;36256;42.154;23.002;2024-01-15T10:32:11;69.85;;;34.92;;
36629;SDS011;36256;42.154;23.002;2024-01-15T10:34:40;222.13;;;102.57;;
36629;SDS011;36256;42.154;23.002;2024-01-15T10:37:08;137.07;;;64.22;;
36629;SDS011;36256;42.154;23.002;2024-01-15T10:39:38;101.30;;;43.28;;
36629;SDS011;36256;42.154;23.002;2024-01-15T10:42:05;136.63;;;76.93;;
36629;SDS011;36256;42.154;23.002;2024-01-15T10:44:33;77.57;;;41.45;;
36629;SDS011;36256;42.154;23.002;2024-01-15T10:47:01;60.50;;;32.35;;
36629;SDS011;36256;42.154;23.002;2024-01-15T10:49:29;67.10;;;31.38;;
36629;SDS011;36256;42.154;23.002;2024-01-15T10:52:00;67.50;;;29.80;;
36629;SDS011;36256;42.154;23.002;2024-01-15T10:54:28;58.53;;;30.25;;
36629;SDS011;36256;42.154;23.002;2024-01-15T10:56:56;62.10;;;33.33;;
36629;SDS011;36256;42.154;23.002;2024-01-15T10:59:24;64.22;;;31.92;;
36629;SDS011;36256;42.154;23.002;2024-01-15T11:01:51;78.40;;;39.58;;
36629;SDS011;36256;42.154;23.002;2024-01-15T11:04:23;63.30;;;32.75;;
36629;SDS011;36256;42.154;23.002;2024-01-15T11:06:51;57.55;;;30.48;;
36629;SDS011;36256;42.154;23.002;2024-01-15T11:09:22;77.05;;;38.17;;
36629;SDS011;36256;42.154;23.002;2024-01-15T11:11:52;72.63;;;37.20;;
36629;SDS011;36256;42.154;23.002;2024-01-15T11:17:15;72.85;;;35.83;;
36629;SDS011;36256;42.154;23.002;2024-01-15T11:19:47;84.40;;;40.35;;
36629;SDS011;36256;42.154;23.002;2024-01-15T11:25:14;62.35;;;32.80;;
36629;SDS011;36256;42.154;23.002;2024-01-15T11:27:42;63.90;;;32.97;;
36629;SDS011;36256;42.154;23.002;2024-01-15T11:30:11;60.33;;;30.88;;
36629;SDS011;36256;42.154;23.002;2024-01-15T11:32:42;80.63;;;37.42;;
36629;SDS011;36256;42.154;23.002;2024-01-15T11:35:09;59.83;;;30.58;;
36629;SDS011;36256;42.154;23.002;2024-01-15T11:42:48;61.75;;;29.17;;
36629;SDS011;36256;42.154;23.002;2024-01-15T11:45:16;84.38;;;38.50;;
36629;SDS011;36256;42.154;23.002;2024-01-15T11:50:49;48.15;;;26.02;;
36629;SDS011;36256;42.154;23.002;2024-01-15T11:55:48;59.60;;;30.30;;
36629;SDS011;36256;42.154;23.002;2024-01-15T11:58:17;61.97;;;29.98;;
36629;SDS011;36256;42.154;23.002;2024-01-15T12:00:45;47.55;;;25.70;;
36629;SDS011;36256;42.154;23.002;2024-01-15T12:03:15;95.97;;;35.35;;
36629;SDS011;36256;42.154;23.002;2024-01-15T12:05:42;120.40;;;39.95;;
36629;SDS011;36256;42.154;23.002;2024-01-15T12:08:10;72.03;;;29.33;;
36629;SDS011;36256;42.154;23.002;2024-01-15T12:10:38;62.17;;;25.70;;
36629;SDS011;36256;42.154;23.002;2024-01-15T12:13:11;113.13;;;36.60;;
36629;SDS011;36256;42.154;23.002;2024-01-15T12:15:43;33.05;;;16.05;;
36629;SDS011;36256;42.154;23.002;2024-01-15T12:18:14;53.90;;;21.35;;
36629;SDS011;36256;42.154;23.002;2024-01-15T12:20:43;21.42;;;11.30;;
36629;SDS011;36256;42.154;23.002;2024-01-15T12:23:14;20.88;;;11.30;;
36629;SDS011;36256;42.154;23.002;2024-01-15T12:28:08;11.70;;;6.88;;
36629;SDS011;36256;42.154;23.002;2024-01-15T12:30:36;25.73;;;12.88;;
36629;SDS011;36256;42.154;23.002;2024-01-15T12:33:04;24.38;;;12.63;;
36629;SDS011;36256;42.154;23.002;2024-01-15T12:35:33;37.25;;;17.70;;
36629;SDS011;36256;42.154;23.002;2024-01-15T12:38:00;29.70;;;13.10;;
36629;SDS011;36256;42.154;23.002;2024-01-15T12:40:31;11.43;;;6.82;;
36629;SDS011;36256;42.154;23.002;2024-01-15T12:42:59;15.05;;;8.73;;
36629;SDS011;36256;42.154;23.002;2024-01-15T12:45:26;14.02;;;7.53;;
36629;SDS011;36256;42.154;23.002;2024-01-15T12:47:53;11.80;;;6.70;;
36629;SDS011;36256;42.154;23.002;2024-01-15T12:50:23;9.48;;;6.18;;
36629;SDS011;36256;42.154;23.002;2024-01-15T12:52:51;12.02;;;6.60;;
36629;SDS011;36256;42.154;23.002;2024-01-15T12:55:17;9.40;;;5.80;;
36629;SDS011;36256;42.154;23.002;2024-01-15T12:57:44;10.07;;;5.85;;
36629;SDS011;36256;42.154;23.002;2024-01-15T13:00:12;9.32;;;5.63;;
36629;SDS011;36256;42.154;23.002;2024-01-15T13:02:42;10.50;;;5.53;;
36629;SDS011;36256;42.154;23.002;2024-01-15T13:05:10;9.35;;;4.95;;
36629;SDS011;36256;42.154;23.002;2024-01-15T13:07:40;9.43;;;5.25;;
36629;SDS011;36256;42.154;23.002;2024-01-15T13:10:07;10.23;;;5.78;;
36629;SDS011;36256;42.154;23.002;2024-01-15T13:12:36;8.43;;;4.35;;
36629;SDS011;36256;42.154;23.002;2024-01-15T13:15:03;11.07;;;5.93;;
36629;SDS011;36256;42.154;23.002;2024-01-15T13:17:30;11.00;;;5.90;;
36629;SDS011;36256;42.154;23.002;2024-01-15T13:19:58;9.35;;;5.80;;
36629;SDS011;36256;42.154;23.002;2024-01-15T13:22:26;8.65;;;5.28;;
36629;SDS011;36256;42.154;23.002;2024-01-15T13:24:58;9.52;;;5.47;;
36629;SDS011;36256;42.154;23.002;2024-01-15T13:27:26;16.98;;;8.30;;
36629;SDS011;36256;42.154;23.002;2024-01-15T13:29:52;9.88;;;5.32;;
36629;SDS011;36256;42.154;23.002;2024-01-15T13:32:26;12.73;;;7.00;;
36629;SDS011;36256;42.154;23.002;2024-01-15T13:34:55;13.68;;;6.95;;
36629;SDS011;36256;42.154;23.002;2024-01-15T13:37:23;10.68;;;6.10;;
36629;SDS011;36256;42.154;23.002;2024-01-15T13:39:54;11.77;;;6.18;;
36629;SDS011;36256;42.154;23.002;2024-01-15T13:42:21;8.05;;;4.65;;
36629;SDS011;36256;42.154;23.002;2024-01-15T13:44:50;15.23;;;6.75;;
36629;SDS011;36256;42.154;23.002;2024-01-15T13:47:19;10.77;;;7.18;;
36629;SDS011;36256;42.154;23.002;2024-01-15T13:49:45;17.27;;;8.95;;
36629;SDS011;36256;42.154;23.002;2024-01-15T13:52:13;12.10;;;7.10;;
36629;SDS011;36256;42.154;23.002;2024-01-15T13:54:39;19.05;;;12.18;;
36629;SDS011;36256;42.154;23.002;2024-01-15T13:57:16;10.60;;;6.03;;
36629;SDS011;36256;42.154;23.002;2024-01-15T13:59:44;12.45;;;6.85;;
36629;SDS011;36256;42.154;23.002;2024-01-15T14:02:11;10.88;;;6.45;;
36629;SDS011;36256;42.154;23.002;2024-01-15T14:04:46;8.45;;;5.53;;
36629;SDS011;36256;42.154;23.002;2024-01-15T14:07:14;11.10;;;5.65;;
36629;SDS011;36256;42.154;23.002;2024-01-15T14:09:42;14.05;;;7.45;;
36629;SDS011;36256;42.154;23.002;2024-01-15T14:12:11;11.95;;;6.47;;
36629;SDS011;36256;42.154;23.002;2024-01-15T14:14:38;9.07;;;5.13;;
36629;SDS011;36256;42.154;23.002;2024-01-15T14:17:06;9.90;;;5.60;;
36629;SDS011;36256;42.154;23.002;2024-01-15T14:19:36;11.00;;;5.20;;
36629;SDS011;36256;42.154;23.002;2024-01-15T14:22:03;8.98;;;5.30;;
36629;SDS011;36256;42.154;23.002;2024-01-15T14:24:30;20.10;;;9.77;;
36629;SDS011;36256;42.154;23.002;2024-01-15T14:26:57;10.57;;;5.57;;
36629;SDS011;36256;42.154;23.002;2024-01-15T14:29:23;8.82;;;5.88;;
36629;SDS011;36256;42.154;23.002;2024-01-15T14:31:52;11.43;;;6.00;;
36629;SDS011;36256;42.154;23.002;2024-01-15T14:34:19;7.18;;;4.65;;
36629;SDS011;36256;42.154;23.002;2024-01-15T14:36:50;9.75;;;5.57;;
36629;SDS011;36256;42.154;23.002;2024-01-15T14:39:23;8.93;;;5.25;;
36629;SDS011;36256;42.154;23.002;2024-01-15T14:41:50;7.07;;;4.22;;
36629;SDS011;36256;42.154;23.002;2024-01-15T14:44:17;9.60;;;5.10;;
36629;SDS011;36256;42.154;23.002;2024-01-15T14:46:44;8.23;;;4.75;;
36629;SDS011;36256;42.154;23.002;2024-01-15T14:49:12;7.28;;;4.03;;
36629;SDS011;36256;42.154;23.002;2024-01-15T14:51:39;11.50;;;5.28;;
36629;SDS011;36256;42.154;23.002;2024-01-15T14:54:06;10.05;;;5.00;;
36629;SDS011;36256;42.154;23.002;2024-01-15T14:56:33;12.70;;;5.47;;
36629;SDS011;36256;42.154;23.002;2024-01-15T14:59:00;11.38;;;5.00;;
36629;SDS011;36256;42.154;23.002;2024-01-15T15:01:26;10.68;;;5.63;;
36629;SDS011;36256;42.154;23.002;2024-01-15T15:03:53;9.18;;;5.43;;
36629;SDS011;36256;42.154;23.002;2024-01-15T15:06:20;9.25;;;5.28;;
36629;SDS011;36256;42.154;23.002;2024-01-15T15:08:47;8.63;;;4.90;;
36629;SDS011;36256;42.154;23.002;2024-01-15T15:11:14;11.65;;;5.35;;
36629;SDS011;36256;42.154;23.002;2024-01-15T15:13:41;8.98;;;5.43;;
36629;SDS011;36256;42.154;23.002;2024-01-15T15:16:12;8.73;;;4.60;;
36629;SDS011;36256;42.154;23.002;2024-01-15T15:18:40;5.72;;;4.00;;
36629;SDS011;36256;42.154;23.002;2024-01-15T15:21:09;11.93;;;5.00;;
36629;SDS011;36256;42.154;23.002;2024-01-15T15:23:37;6.80;;;4.47;;
36629;SDS011;36256;42.154;23.002;2024-01-15T15:26:07;7.22;;;4.38;;
36629;SDS011;36256;42.154;23.002;2024-01-15T15:28:35;8.60;;;4.65;;
36629;SDS011;36256;42.154;23.002;2024-01-15T15:31:03;8.48;;;4.25;;
36629;SDS011;36256;42.154;23.002;2024-01-15T15:33:31;9.40;;;4.93;;
36629;SDS011;36256;42.154;23.002;2024-01-15T15:38:28;10.52;;;5.07;;